createdAt,value
2022-11-03T00:01:15.400Z,5.53
2022-11-03T00:03:44.152Z,5.32
2022-11-03T00:06:11.545Z,5.65
2022-11-03T00:08:43.089Z,5.43
2022-11-03T00:11:12.080Z,5.47
2022-11-03T00:13:41.838Z,5.30
2022-11-03T00:16:10.474Z,5.50
2022-11-03T00:18:38.149Z,5.78
2022-11-03T00:21:08.714Z,4.80
2022-11-03T00:23:37.482Z,5.00
2022-11-03T00:26:07.027Z,5.18
2022-11-03T00:28:35.087Z,5.78
2022-11-03T00:31:03.192Z,5.35
2022-11-03T00:33:32.507Z,5.47
2022-11-03T00:36:00.048Z,5.55
2022-11-03T00:38:29.028Z,5.97
2022-11-03T00:40:57.076Z,5.65
2022-11-03T00:43:25.316Z,6.22
2022-11-03T00:45:52.807Z,5.82
2022-11-03T00:48:32.604Z,5.75
2022-11-03T00:51:04.885Z,5.88
2022-11-03T00:53:34.548Z,6.30
2022-11-03T00:56:02.414Z,5.75
2022-11-03T00:58:29.845Z,6.00
2022-11-03T01:01:05.245Z,6.80
2022-11-03T01:03:34.073Z,6.60
2022-11-03T01:06:19.324Z,6.63
2022-11-03T01:08:48.092Z,6.15
2022-11-03T01:11:34.925Z,6.43
2022-11-03T01:14:02.741Z,7.07
2022-11-03T01:16:30.621Z,7.97
2022-11-03T01:18:58.362Z,7.00
2022-11-03T01:21:25.981Z,7.35
2022-11-03T01:23:54.704Z,8.40
2022-11-03T01:26:22.333Z,7.35
2022-11-03T01:28:49.968Z,8.10
2022-11-03T01:31:19.308Z,8.32
2022-11-03T01:33:47.432Z,8.25
2022-11-03T01:36:15.878Z,8.40
2022-11-03T01:38:43.714Z,8.48
2022-11-03T01:41:16.120Z,8.80
2022-11-03T01:43:43.627Z,9.52
2022-11-03T01:46:17.301Z,9.00
2022-11-03T01:48:48.302Z,9.70
2022-11-03T01:51:17.292Z,10.10
2022-11-03T01:53:46.517Z,10.20
2022-11-03T01:56:16.492Z,9.65
2022-11-03T01:58:44.889Z,11.00
2022-11-03T02:01:12.546Z,11.00
2022-11-03T02:03:42.569Z,11.23
2022-11-03T02:06:10.704Z,11.80
2022-11-03T02:08:41.289Z,11.15
2022-11-03T02:11:22.868Z,13.05
2022-11-03T02:13:51.580Z,15.57
2022-11-03T02:16:19.448Z,15.45
2022-11-03T02:18:47.861Z,12.27
2022-11-03T02:21:24.202Z,10.50
2022-11-03T02:23:54.241Z,9.80
2022-11-03T02:26:23.035Z,10.43
2022-11-03T02:28:50.509Z,11.43
2022-11-03T02:31:22.063Z,10.25
2022-11-03T02:33:53.020Z,9.70
2022-11-03T02:36:23.994Z,10.80
2022-11-03T02:38:56.105Z,9.55
2022-11-03T02:41:25.358Z,8.18
2022-11-03T02:43:53.599Z,9.07
2022-11-03T02:46:22.007Z,9.15
2022-11-03T02:48:49.720Z,8.20
2022-11-03T02:51:17.233Z,8.38
2022-11-03T02:53:49.438Z,9.05
2022-11-03T02:56:20.216Z,8.75
2022-11-03T02:58:53.256Z,8.20
2022-11-03T03:01:24.952Z,8.40
2022-11-03T03:03:55.393Z,7.85
2022-11-03T03:06:24.932Z,8.10
2022-11-03T03:08:56.556Z,8.13
2022-11-03T03:11:38.720Z,7.82
2022-11-03T03:14:11.121Z,7.38
2022-11-03T03:16:44.292Z,7.80
2022-11-03T03:19:19.932Z,7.80
2022-11-03T03:21:50.784Z,7.78
2022-11-03T03:24:24.235Z,7.18
2022-11-03T03:26:52.025Z,7.15
2022-11-03T03:29:23.836Z,7.63
2022-11-03T03:31:56.433Z,7.55
2022-11-03T03:34:34.616Z,7.15
2022-11-03T03:37:02.739Z,6.85
2022-11-03T03:39:33.319Z,6.85
2022-11-03T03:42:02.765Z,6.80
2022-11-03T03:44:31.687Z,6.68
2022-11-03T03:47:01.654Z,5.80
2022-11-03T03:49:29.332Z,6.60
2022-11-03T03:51:57.215Z,6.63
2022-11-03T03:54:24.625Z,6.82
2022-11-03T03:56:55.148Z,6.03
2022-11-03T03:59:22.551Z,6.55
2022-11-03T04:01:51.316Z,6.55
2022-11-03T04:04:18.900Z,6.68
2022-11-03T04:06:46.310Z,6.57
2022-11-03T04:09:13.708Z,6.43
2022-11-03T04:11:58.614Z,6.72
2022-11-03T04:14:43.330Z,6.00
2022-11-03T04:17:38.100Z,6.95
2022-11-03T04:20:28.387Z,7.13
2022-11-03T04:22:55.787Z,6.93
2022-11-03T04:25:23.177Z,6.97
2022-11-03T04:27:50.579Z,6.72
2022-11-03T04:30:20.006Z,6.43
2022-11-03T04:32:49.880Z,6.72
2022-11-03T04:35:18.839Z,6.78
2022-11-03T04:37:47.915Z,6.70
2022-11-03T04:40:17.720Z,7.82
2022-11-03T04:42:45.827Z,7.80
2022-11-03T04:45:17.119Z,13.95
2022-11-03T04:47:44.675Z,14.90
2022-11-03T04:50:16.786Z,11.27
2022-11-03T04:52:44.242Z,8.02
2022-11-03T04:55:16.069Z,7.82
2022-11-03T04:57:43.794Z,8.00
2022-11-03T05:00:16.959Z,8.85
2022-11-03T05:02:44.755Z,9.88
2022-11-03T05:05:21.368Z,8.00
2022-11-03T05:07:50.307Z,7.53
2022-11-03T05:10:20.490Z,7.07
2022-11-03T05:12:48.462Z,7.03
2022-11-03T05:15:29.059Z,7.10
2022-11-03T05:17:57.354Z,7.05
2022-11-03T05:20:36.036Z,7.10
2022-11-03T05:23:05.327Z,7.50
2022-11-03T05:25:40.259Z,7.55
2022-11-03T05:28:15.976Z,6.75
2022-11-03T05:30:43.376Z,7.10
2022-11-03T05:33:20.409Z,7.35
2022-11-03T05:35:49.209Z,6.45
2022-11-03T05:38:17.886Z,6.57
2022-11-03T05:40:45.308Z,7.80
2022-11-03T05:43:14.741Z,8.15
2022-11-03T05:45:42.604Z,7.78
2022-11-03T05:48:16.362Z,7.65
2022-11-03T05:50:43.788Z,8.43
2022-11-03T05:53:23.536Z,7.55
2022-11-03T05:55:50.926Z,7.90
2022-11-03T05:58:24.033Z,8.15
2022-11-03T06:00:51.462Z,8.35
2022-11-03T06:03:22.759Z,7.95
2022-11-03T06:05:50.174Z,7.60
2022-11-03T06:08:21.040Z,8.00
2022-11-03T06:10:51.382Z,8.85
2022-11-03T06:13:21.050Z,7.80
2022-11-03T06:15:49.711Z,7.10
2022-11-03T06:18:20.283Z,7.47
2022-11-03T06:20:51.229Z,7.38
2022-11-03T06:23:20.651Z,7.00
2022-11-03T06:25:48.755Z,8.02
2022-11-03T06:28:19.530Z,8.05
2022-11-03T06:30:47.049Z,8.18
2022-11-03T06:33:16.802Z,8.43
2022-11-03T06:35:45.269Z,7.50
2022-11-03T06:38:16.944Z,6.82
2022-11-03T06:40:46.003Z,7.53
2022-11-03T06:43:17.796Z,7.38
2022-11-03T06:45:51.089Z,7.93
2022-11-03T06:48:25.355Z,7.10
2022-11-03T06:50:53.404Z,8.02
2022-11-03T06:53:23.273Z,8.25
2022-11-03T06:55:52.151Z,7.95
2022-11-03T06:58:24.483Z,8.23
2022-11-03T07:00:52.281Z,7.10
2022-11-03T07:03:23.652Z,7.25
2022-11-03T07:05:51.051Z,7.57
2022-11-03T07:08:24.107Z,7.80
2022-11-03T07:10:59.955Z,7.07
2022-11-03T07:13:28.590Z,7.50
2022-11-03T07:15:55.982Z,7.03
2022-11-03T07:18:25.296Z,6.78
2022-11-03T07:20:53.414Z,7.20
2022-11-03T07:23:23.810Z,7.18
2022-11-03T07:25:54.608Z,6.93
2022-11-03T07:28:24.269Z,7.25
2022-11-03T07:30:51.665Z,6.53
2022-11-03T07:33:22.102Z,5.60
2022-11-03T07:38:39.033Z,7.68
2022-11-03T07:41:13.430Z,6.28
2022-11-03T07:43:40.934Z,6.47
2022-11-03T07:46:15.353Z,6.07
2022-11-03T07:48:46.851Z,5.05
2022-11-03T07:51:18.434Z,4.97
2022-11-03T07:53:47.550Z,5.18
2022-11-03T07:56:20.248Z,5.20
2022-11-03T07:58:49.557Z,5.07
2022-11-03T08:01:26.191Z,6.10
2022-11-03T08:03:56.390Z,4.72
2022-11-03T08:06:23.819Z,4.28
2022-11-03T08:08:51.207Z,4.85
2022-11-03T08:11:22.043Z,4.90
2022-11-03T08:13:52.211Z,3.88
2022-11-03T08:16:19.843Z,4.60
2022-11-03T08:18:47.508Z,4.07
2022-11-03T08:21:15.022Z,3.80
2022-11-03T08:23:47.157Z,4.20
2022-11-03T08:26:15.449Z,3.75
2022-11-03T08:28:44.197Z,4.18
2022-11-03T08:31:13.124Z,3.83
2022-11-03T08:33:41.168Z,3.47
2022-11-03T08:36:09.569Z,3.80
2022-11-03T08:38:37.320Z,3.42
2022-11-03T08:41:05.095Z,3.53
2022-11-03T08:43:32.532Z,3.53
2022-11-03T08:46:08.248Z,3.35
2022-11-03T08:48:43.086Z,3.20
2022-11-03T08:51:13.362Z,3.65
2022-11-03T08:53:42.494Z,3.38
2022-11-03T08:56:12.506Z,3.53
2022-11-03T08:58:41.315Z,3.08
2022-11-03T09:01:10.087Z,3.13
2022-11-03T09:03:37.651Z,3.10
2022-11-03T09:06:05.467Z,3.13
2022-11-03T09:11:20.402Z,3.03
2022-11-03T09:13:47.853Z,3.05
2022-11-03T09:16:16.740Z,3.30
2022-11-03T09:18:45.333Z,3.42
2022-11-03T09:21:13.523Z,3.05
2022-11-03T09:23:41.092Z,3.35
2022-11-03T09:26:08.499Z,3.10
2022-11-03T09:28:35.908Z,3.60
2022-11-03T09:31:03.306Z,3.10
2022-11-03T09:33:32.374Z,3.38
2022-11-03T09:35:59.791Z,3.38
2022-11-03T09:38:27.223Z,2.83
2022-11-03T09:40:55.592Z,3.15
2022-11-03T09:43:23.017Z,2.92
2022-11-03T09:45:50.465Z,3.10
2022-11-03T09:48:17.939Z,2.80
2022-11-03T09:50:47.082Z,2.72
2022-11-03T09:53:14.933Z,2.97
2022-11-03T09:55:42.311Z,2.97
2022-11-03T09:58:12.084Z,2.80
2022-11-03T10:00:39.725Z,2.90
2022-11-03T10:03:07.532Z,2.97
2022-11-03T10:05:36.586Z,2.85
2022-11-03T10:08:18.362Z,3.22
2022-11-03T10:10:49.697Z,2.70
2022-11-03T10:13:24.692Z,2.75
2022-11-03T10:15:52.191Z,3.03
2022-11-03T10:18:19.887Z,3.03
2022-11-03T10:20:47.358Z,2.83
2022-11-03T10:23:16.084Z,2.78
2022-11-03T10:25:44.742Z,2.90
2022-11-03T10:28:17.270Z,2.95
2022-11-03T10:31:12.972Z,2.92
2022-11-03T10:33:41.809Z,3.17
2022-11-03T10:36:24.099Z,3.33
2022-11-03T10:38:53.103Z,2.63
2022-11-03T10:41:21.740Z,2.60
2022-11-03T10:44:02.185Z,2.67
2022-11-03T10:46:49.119Z,3.05
2022-11-03T10:49:19.160Z,2.70
2022-11-03T10:51:49.304Z,3.25
2022-11-03T10:54:19.288Z,3.33
2022-11-03T10:56:47.365Z,3.05
2022-11-03T10:59:18.277Z,2.90
2022-11-03T11:01:47.694Z,3.10
2022-11-03T11:04:16.891Z,2.83
2022-11-03T11:06:44.441Z,2.67
2022-11-03T11:09:13.565Z,2.42
2022-11-03T11:11:59.602Z,3.45
2022-11-03T11:14:36.978Z,3.30
2022-11-03T11:17:05.120Z,2.90
2022-11-03T11:20:11.406Z,2.53
2022-11-03T11:22:40.123Z,2.80
2022-11-03T11:25:08.560Z,3.10
2022-11-03T11:27:58.832Z,3.20
2022-11-03T11:30:59.632Z,3.00
2022-11-03T11:33:27.962Z,2.75
2022-11-03T11:36:21.220Z,2.90
2022-11-03T11:39:00.152Z,3.17
2022-11-03T11:42:05.408Z,2.92
2022-11-03T11:44:53.337Z,4.10
2022-11-03T11:47:27.025Z,5.30
2022-11-03T11:50:16.723Z,4.15
2022-11-03T11:52:46.183Z,3.50
2022-11-03T11:55:19.845Z,3.92
2022-11-03T11:57:48.264Z,5.00
2022-11-03T12:00:22.199Z,3.80
2022-11-03T12:05:21.832Z,3.17
2022-11-03T12:07:49.708Z,3.70
2022-11-03T12:10:19.629Z,6.80
2022-11-03T12:12:47.321Z,7.82
2022-11-03T12:15:49.501Z,9.57
2022-11-03T12:18:32.865Z,6.43
2022-11-03T12:21:05.157Z,4.65
2022-11-03T12:23:42.297Z,4.72
2022-11-03T12:26:42.749Z,4.10
2022-11-03T12:29:10.211Z,3.13
2022-11-03T12:31:37.613Z,3.30
2022-11-03T12:34:05.026Z,3.20
2022-11-03T12:36:32.416Z,3.30
2022-11-03T12:38:59.830Z,3.28
2022-11-03T12:41:28.544Z,3.45
2022-11-03T12:43:56.896Z,2.75
2022-11-03T12:46:24.511Z,3.10
2022-11-03T12:48:52.497Z,3.20
2022-11-03T12:51:20.970Z,3.70
2022-11-03T12:53:48.836Z,5.50
2022-11-03T12:56:16.820Z,4.53
2022-11-03T12:58:46.040Z,3.67
2022-11-03T13:01:13.748Z,3.55
2022-11-03T13:03:41.223Z,3.97
2022-11-03T13:06:10.252Z,4.00
2022-11-03T13:08:38.340Z,4.72
2022-11-03T13:11:26.005Z,3.55
2022-11-03T13:13:55.036Z,3.30
2022-11-03T13:16:24.068Z,3.72
2022-11-03T13:18:51.494Z,3.40
2022-11-03T13:21:19.953Z,3.95
2022-11-03T13:23:47.425Z,3.50
2022-11-03T13:26:15.045Z,4.00
2022-11-03T13:28:42.434Z,3.35
2022-11-03T13:31:11.231Z,2.80
2022-11-03T13:33:38.631Z,2.92
2022-11-03T13:36:06.734Z,3.05
2022-11-03T13:38:34.343Z,3.28
2022-11-03T13:41:08.157Z,3.15
2022-11-03T13:43:36.431Z,3.53
2022-11-03T13:46:05.028Z,3.40
2022-11-03T13:51:21.537Z,3.10
2022-11-03T14:04:45.372Z,3.70
2022-11-03T14:07:12.930Z,3.38
2022-11-03T14:09:40.329Z,3.50
2022-11-03T14:12:25.684Z,3.55
2022-11-03T14:14:53.095Z,3.60
2022-11-03T14:17:20.487Z,3.25
2022-11-03T14:19:52.626Z,3.53
2022-11-03T14:22:21.094Z,4.07
2022-11-03T14:24:48.759Z,3.40
2022-11-03T14:27:16.601Z,3.28
2022-11-03T14:29:44.468Z,3.65
2022-11-03T14:32:12.197Z,3.60
2022-11-03T14:34:39.827Z,3.83
2022-11-03T14:37:09.103Z,3.45
2022-11-03T14:39:37.307Z,3.58
2022-11-03T14:42:04.318Z,3.75
2022-11-03T14:44:32.356Z,3.88
2022-11-03T14:47:01.306Z,4.00
2022-11-03T14:49:28.774Z,3.90
2022-11-03T14:51:57.544Z,4.45
2022-11-03T14:54:26.771Z,4.30
2022-11-03T14:56:54.475Z,3.90
2022-11-03T14:59:22.292Z,4.70
2022-11-03T15:01:51.436Z,4.22
2022-11-03T15:04:19.023Z,4.88
2022-11-03T15:06:46.611Z,5.32
2022-11-03T15:09:15.269Z,4.47
2022-11-03T15:11:44.566Z,4.20
2022-11-03T15:14:12.669Z,4.55
2022-11-03T15:16:40.522Z,4.13
2022-11-03T15:19:08.689Z,3.83
2022-11-03T15:21:36.377Z,4.07
2022-11-03T15:26:52.442Z,4.28
2022-11-03T15:29:20.171Z,4.05
2022-11-03T15:31:48.583Z,4.22
2022-11-03T15:34:16.256Z,4.45
2022-11-03T15:36:43.650Z,4.05
2022-11-03T15:39:13.100Z,3.90
2022-11-03T15:41:40.719Z,4.18
2022-11-03T15:44:09.967Z,4.45
2022-11-03T15:46:37.482Z,4.68
2022-11-03T15:49:04.874Z,4.82
2022-11-03T15:51:32.456Z,5.07
2022-11-03T15:54:03.199Z,4.40
2022-11-03T15:56:31.036Z,4.75
2022-11-03T15:58:58.435Z,4.68
2022-11-03T16:01:27.335Z,6.10
2022-11-03T16:03:54.814Z,8.13
2022-11-03T16:06:27.034Z,8.05
2022-11-03T16:09:07.847Z,7.88
2022-11-03T16:11:35.258Z,7.00
2022-11-03T16:14:02.772Z,7.53
2022-11-03T16:16:31.753Z,7.05
2022-11-03T16:18:59.142Z,5.80
2022-11-03T16:21:26.674Z,5.38
2022-11-03T16:23:54.131Z,5.22
2022-11-03T16:26:24.163Z,4.88
2022-11-03T16:28:51.670Z,5.72
2022-11-03T16:31:19.129Z,5.07
2022-11-03T16:33:47.877Z,4.88
2022-11-03T16:36:15.287Z,5.22
2022-11-03T16:38:42.666Z,5.65
2022-11-03T16:41:10.079Z,4.97
2022-11-03T16:43:37.605Z,5.20
2022-11-03T16:46:05.481Z,5.03
2022-11-03T16:48:32.922Z,5.28
2022-11-03T16:51:01.811Z,5.57
2022-11-03T16:53:29.290Z,5.75
2022-11-03T16:55:56.775Z,5.30
2022-11-03T16:58:24.326Z,5.20
2022-11-03T17:00:51.847Z,6.75
2022-11-03T17:03:19.323Z,5.32
2022-11-03T17:05:46.726Z,5.63
2022-11-03T17:08:38.946Z,7.13
2022-11-03T17:11:02.905Z,7.00
2022-11-03T17:13:30.359Z,5.57
2022-11-03T17:15:57.752Z,5.85
2022-11-03T17:18:25.181Z,8.60
2022-11-03T17:20:52.609Z,5.90
2022-11-03T17:23:21.315Z,5.22
2022-11-03T17:25:48.774Z,5.40
2022-11-03T17:28:18.692Z,5.40
2022-11-03T17:30:46.197Z,5.65
2022-11-03T17:33:16.952Z,5.55
2022-11-03T17:35:45.478Z,7.53
2022-11-03T17:38:15.549Z,7.38
2022-11-03T17:40:45.686Z,6.05
2022-11-03T17:43:22.376Z,4.65
2022-11-03T17:45:49.918Z,4.97
2022-11-03T17:48:17.337Z,4.75
2022-11-03T17:50:47.423Z,7.13
2022-11-03T17:53:22.512Z,15.07
2022-11-03T17:56:09.044Z,7.78
2022-11-03T17:58:45.846Z,4.80
2022-11-03T18:01:15.213Z,4.70
2022-11-03T18:03:42.720Z,4.60
2022-11-03T18:06:16.188Z,4.95
2022-11-03T18:08:44.548Z,4.45
2022-11-03T18:11:34.319Z,4.32
2022-11-03T18:14:00.838Z,4.57
2022-11-03T18:16:28.384Z,4.30
2022-11-03T18:18:55.952Z,5.15
2022-11-03T18:21:24.502Z,4.43
2022-11-03T18:23:51.939Z,4.35
2022-11-03T18:26:21.835Z,4.97
2022-11-03T18:28:50.284Z,4.70
2022-11-03T18:31:21.193Z,4.63
2022-11-03T18:33:48.889Z,4.68
2022-11-03T18:36:16.683Z,4.68
2022-11-03T18:38:45.379Z,4.55
2022-11-03T18:41:28.711Z,4.43
2022-11-03T18:43:57.420Z,4.20
2022-11-03T18:46:24.818Z,4.63
2022-11-03T18:48:52.388Z,4.63
2022-11-03T18:51:19.810Z,4.95
2022-11-03T18:53:47.363Z,4.75
2022-11-03T18:56:16.084Z,4.75
2022-11-03T18:58:43.474Z,5.32
2022-11-03T19:01:13.776Z,4.72
2022-11-03T19:03:41.215Z,4.03
2022-11-03T19:06:10.089Z,5.03
2022-11-03T19:08:37.542Z,4.80
2022-11-03T19:11:05.043Z,5.32
2022-11-03T19:13:36.636Z,4.57
2022-11-03T19:16:14.172Z,5.13
2022-11-03T19:18:44.084Z,4.65
2022-11-03T19:21:13.676Z,5.75
2022-11-03T19:23:44.889Z,5.30
2022-11-03T19:28:44.385Z,5.20
2022-11-03T19:31:17.272Z,9.23
2022-11-03T19:33:46.412Z,7.72
2022-11-03T19:36:13.829Z,6.85
2022-11-03T19:38:41.355Z,9.93
2022-11-03T19:41:31.471Z,5.88
2022-11-03T19:43:58.859Z,5.65
2022-11-03T19:46:26.492Z,6.00
2022-11-03T19:48:55.773Z,5.53
2022-11-03T19:51:23.255Z,5.78
2022-11-03T19:53:50.765Z,5.70
2022-11-03T19:56:18.459Z,5.68
2022-11-03T19:58:45.837Z,5.40
2022-11-03T20:01:13.335Z,6.40
2022-11-03T20:03:40.834Z,6.10
2022-11-03T20:06:09.641Z,6.55
2022-11-03T20:08:37.473Z,5.70
2022-11-03T20:11:06.271Z,6.55
2022-11-03T20:13:38.904Z,6.20
2022-11-03T20:16:10.850Z,5.57
2022-11-03T20:18:38.342Z,5.80
2022-11-03T20:21:06.010Z,6.10
2022-11-03T20:23:38.247Z,6.55
2022-11-03T20:26:06.697Z,6.05
2022-11-03T20:28:37.228Z,5.68
2022-11-03T20:31:04.689Z,6.25
2022-11-03T20:33:32.215Z,6.72
2022-11-03T20:35:59.648Z,6.90
2022-11-03T20:38:27.985Z,7.63
2022-11-03T20:40:59.190Z,6.20
2022-11-03T20:43:28.441Z,6.22
2022-11-03T20:45:56.320Z,6.45
2022-11-03T20:48:23.965Z,6.50
2022-11-03T20:50:51.973Z,6.43
2022-11-03T20:53:21.295Z,6.70
2022-11-03T20:55:49.013Z,7.32
2022-11-03T20:58:18.895Z,6.80
2022-11-03T21:00:47.459Z,7.35
2022-11-03T21:03:37.883Z,7.05
2022-11-03T21:06:06.254Z,7.03
2022-11-03T21:08:33.654Z,6.90
2022-11-03T21:11:23.150Z,6.45
2022-11-03T21:13:52.313Z,7.03
2022-11-03T21:16:37.395Z,7.40
2022-11-03T21:19:27.275Z,6.80
2022-11-03T21:21:54.738Z,7.25
2022-11-03T21:24:22.202Z,7.20
2022-11-03T21:26:49.648Z,7.35
2022-11-03T21:29:27.852Z,7.72
2022-11-03T21:32:06.547Z,8.27
2022-11-03T21:34:34.050Z,7.30
2022-11-03T21:37:01.448Z,7.18
2022-11-03T21:39:29.608Z,7.35
2022-11-03T21:42:29.123Z,7.97
2022-11-03T21:44:58.526Z,7.82
2022-11-03T21:47:26.345Z,7.53
2022-11-03T21:49:52.839Z,7.72
2022-11-03T21:52:31.600Z,8.30
2022-11-03T21:54:59.485Z,7.97
2022-11-03T21:57:27.029Z,7.82
2022-11-03T21:59:54.444Z,7.53
2022-11-03T22:02:23.230Z,7.97
2022-11-03T22:04:51.132Z,8.38
2022-11-03T22:07:18.576Z,8.02
2022-11-03T22:09:45.997Z,8.55
2022-11-03T22:12:13.384Z,7.85
2022-11-03T22:14:58.171Z,8.60
2022-11-03T22:17:26.891Z,8.60
2022-11-03T22:20:23.132Z,7.85
2022-11-03T22:23:08.134Z,8.65
2022-11-03T22:25:53.119Z,8.65
2022-11-03T22:28:20.948Z,8.20
2022-11-03T22:31:06.260Z,8.65
2022-11-03T22:33:55.664Z,9.55
2022-11-03T22:36:25.046Z,8.90
2022-11-03T22:39:10.086Z,8.82
2022-11-03T22:42:05.871Z,8.55
2022-11-03T22:44:51.772Z,8.73
2022-11-03T22:47:19.225Z,8.35
2022-11-03T22:49:47.974Z,10.18
2022-11-03T22:52:15.360Z,9.23
2022-11-03T22:54:41.798Z,8.93
2022-11-03T22:57:11.233Z,9.88
2022-11-03T22:59:38.627Z,9.18
2022-11-03T23:02:06.142Z,10.75
2022-11-03T23:04:34.122Z,9.60
2022-11-03T23:07:02.844Z,9.43
2022-11-03T23:09:30.485Z,10.05
2022-11-03T23:11:57.886Z,9.57
2022-11-03T23:14:45.317Z,11.10
2022-11-03T23:17:12.704Z,10.23
2022-11-03T23:19:57.968Z,9.88
2022-11-03T23:22:26.704Z,11.18
2022-11-03T23:25:02.020Z,9.95
2022-11-03T23:27:29.574Z,10.05
2022-11-03T23:29:56.970Z,11.13
2022-11-03T23:32:24.369Z,11.23
2022-11-03T23:34:52.206Z,11.25
2022-11-03T23:37:19.617Z,10.38
2022-11-03T23:39:48.337Z,11.50
2022-11-03T23:42:15.732Z,11.00
2022-11-03T23:45:00.633Z,11.75
2022-11-03T23:47:45.606Z,10.52
2022-11-03T23:50:13.009Z,10.80
2022-11-03T23:52:40.420Z,10.75
2022-11-03T23:55:09.891Z,10.73
2022-11-03T23:57:54.748Z,10.63
